sensor_id;sensor_type;location;lat;lon;timestamp;pressure;altitude;pressure_sealevel;temperature;humidity
45864;BME280;31579;52.354;16.974;2023-05-25T00:01:02;494.1;;;-146.1;100.0
45864;BME280;31579;52.354;16.974;2023-05-25T00:02:06;494.1;;;-146.1;100.0
45864;BME280;31579;52.354;16.974;2023-05-25T00:02:37;495.3;;;-146.1;100.0
45864;BME280;31579;52.354;16.974;2023-05-25T00:03:41;494.2;;;-146.1;100.0
45864;BME280;31579;52.354;16.974;2023-05-25T00:04:45;494.2;;;-146.1;100.0
45864;BME280;31579;52.354;16.974;2023-05-25T00:05:49;494.4;;;-146.1;100.0
45864;BME280;31579;52.354;16.974;2023-05-25T00:06:54;494.5;;;-146.1;100.0
45864;BME280;31579;52.354;16.974;2023-05-25T00:07:59;494.6;;;-146.1;100.0
45864;BME280;31579;52.354;16.974;2023-05-25T00:09:06;495.2;;;-146.1;100.0
45864;BME280;31579;52.354;16.974;2023-05-25T00:10:11;494.6;;;-146.1;100.0
45864;BME280;31579;52.354;16.974;2023-05-25T00:11:15;494.5;;;-146.1;100.0
45864;BME280;31579;52.354;16.974;2023-05-25T00:12:19;494.5;;;-146.1;100.0
45864;BME280;31579;52.354;16.974;2023-05-25T00:13:23;494.7;;;-146.1;100.0
45864;BME280;31579;52.354;16.974;2023-05-25T00:14:27;494.8;;;-146.1;100.0
45864;BME280;31579;52.354;16.974;2023-05-25T00:15:31;494.8;;;-146.1;100.0
45864;BME280;31579;52.354;16.974;2023-05-25T00:16:35;495.0;;;-146.1;100.0
45864;BME280;31579;52.354;16.974;2023-05-25T00:17:39;495.0;;;-146.1;100.0
45864;BME280;31579;52.354;16.974;2023-05-25T00:18:43;495.1;;;-146.1;100.0
45864;BME280;31579;52.354;16.974;2023-05-25T00:19:47;495.1;;;-146.1;100.0
45864;BME280;31579;52.354;16.974;2023-05-25T00:20:51;495.0;;;-146.1;100.0
45864;BME280;31579;52.354;16.974;2023-05-25T00:21:55;494.9;;;-146.1;100.0
45864;BME280;31579;52.354;16.974;2023-05-25T00:22:59;494.9;;;-146.1;100.0
45864;BME280;31579;52.354;16.974;2023-05-25T00:24:04;496.9;;;-146.1;100.0
45864;BME280;31579;52.354;16.974;2023-05-25T00:25:08;495.8;;;-146.1;100.0
45864;BME280;31579;52.354;16.974;2023-05-25T00:26:11;495.5;;;-146.1;100.0
45864;BME280;31579;52.354;16.974;2023-05-25T00:27:15;495.3;;;-146.1;100.0
45864;BME280;31579;52.354;16.974;2023-05-25T00:28:19;495.3;;;-146.1;100.0
45864;BME280;31579;52.354;16.974;2023-05-25T00:29:23;495.3;;;-146.1;100.0
45864;BME280;31579;52.354;16.974;2023-05-25T00:30:27;495.2;;;-146.1;100.0
45864;BME280;31579;52.354;16.974;2023-05-25T00:31:31;495.2;;;-146.1;100.0
45864;BME280;31579;52.354;16.974;2023-05-25T00:32:35;495.2;;;-146.1;100.0
45864;BME280;31579;52.354;16.974;2023-05-25T00:33:39;495.3;;;-146.1;100.0
45864;BME280;31579;52.354;16.974;2023-05-25T00:34:43;495.3;;;-146.1;100.0
45864;BME280;31579;52.354;16.974;2023-05-25T00:35:47;495.4;;;-146.1;100.0
45864;BME280;31579;52.354;16.974;2023-05-25T00:36:52;495.5;;;-146.1;100.0
45864;BME280;31579;52.354;16.974;2023-05-25T00:37:55;495.5;;;-146.1;100.0
45864;BME280;31579;52.354;16.974;2023-05-25T00:38:59;495.7;;;-146.1;100.0
45864;BME280;31579;52.354;16.974;2023-05-25T00:39:10;487.9;;;-146.1;100.0
45864;BME280;31579;52.354;16.974;2023-05-25T00:40:14;492.5;;;-146.1;100.0
45864;BME280;31579;52.354;16.974;2023-05-25T00:41:18;494.0;;;-146.1;100.0
45864;BME280;31579;52.354;16.974;2023-05-25T00:42:22;494.7;;;-146.1;100.0
45864;BME280;31579;52.354;16.974;2023-05-25T00:43:26;495.0;;;-146.1;100.0
45864;BME280;31579;52.354;16.974;2023-05-25T00:44:30;495.4;;;-146.1;100.0
45864;BME280;31579;52.354;16.974;2023-05-25T00:45:34;495.5;;;-146.1;100.0
45864;BME280;31579;52.354;16.974;2023-05-25T00:46:38;495.6;;;-146.1;100.0
45864;BME280;31579;52.354;16.974;2023-05-25T00:47:42;495.6;;;-146.1;100.0
45864;BME280;31579;52.354;16.974;2023-05-25T00:48:46;495.7;;;-146.1;100.0
45864;BME280;31579;52.354;16.974;2023-05-25T00:49:50;495.7;;;-146.1;100.0
45864;BME280;31579;52.354;16.974;2023-05-25T00:50:54;495.6;;;-146.1;100.0
45864;BME280;31579;52.354;16.974;2023-05-25T00:51:58;495.5;;;-146.1;100.0
45864;BME280;31579;52.354;16.974;2023-05-25T00:53:01;499.3;;;-146.1;100.0
45864;BME280;31579;52.354;16.974;2023-05-25T00:54:05;496.8;;;-146.1;100.0
45864;BME280;31579;52.354;16.974;2023-05-25T00:55:10;496.4;;;-146.1;100.0
45864;BME280;31579;52.354;16.974;2023-05-25T00:56:14;496.0;;;-146.1;100.0
45864;BME280;31579;52.354;16.974;2023-05-25T00:57:18;495.9;;;-146.1;100.0
45864;BME280;31579;52.354;16.974;2023-05-25T00:58:23;495.8;;;-146.1;100.0
45864;BME280;31579;52.354;16.974;2023-05-25T00:59:47;495.7;;;-146.1;100.0
45864;BME280;31579;52.354;16.974;2023-05-25T01:00:30;495.7;;;-146.1;100.0
45864;BME280;31579;52.354;16.974;2023-05-25T01:01:34;495.7;;;-146.1;100.0
45864;BME280;31579;52.354;16.974;2023-05-25T01:02:37;495.7;;;-146.1;100.0
45864;BME280;31579;52.354;16.974;2023-05-25T01:03:42;495.8;;;-146.1;100.0
45864;BME280;31579;52.354;16.974;2023-05-25T01:04:46;495.9;;;-146.1;100.0
45864;BME280;31579;52.354;16.974;2023-05-25T01:05:50;495.8;;;-146.1;100.0
45864;BME280;31579;52.354;16.974;2023-05-25T01:06:53;495.8;;;-146.1;100.0
45864;BME280;31579;52.354;16.974;2023-05-25T01:07:58;495.8;;;-146.1;100.0
45864;BME280;31579;52.354;16.974;2023-05-25T01:09:02;495.8;;;-146.1;100.0
45864;BME280;31579;52.354;16.974;2023-05-25T01:10:04;499.5;;;-146.1;100.0
45864;BME280;31579;52.354;16.974;2023-05-25T01:11:20;496.3;;;-146.1;100.0
45864;BME280;31579;52.354;16.974;2023-05-25T01:12:23;495.9;;;-146.1;100.0
45864;BME280;31579;52.354;16.974;2023-05-25T01:13:27;495.8;;;-146.1;100.0
45864;BME280;31579;52.354;16.974;2023-05-25T01:14:31;495.8;;;-146.1;100.0
45864;BME280;31579;52.354;16.974;2023-05-25T01:15:36;495.9;;;-146.1;100.0
45864;BME280;31579;52.354;16.974;2023-05-25T01:16:39;495.9;;;-146.1;100.0
45864;BME280;31579;52.354;16.974;2023-05-25T01:17:43;496.0;;;-146.1;100.0
45864;BME280;31579;52.354;16.974;2023-05-25T01:18:47;496.1;;;-146.1;100.0
45864;BME280;31579;52.354;16.974;2023-05-25T01:19:51;496.2;;;-146.1;100.0
45864;BME280;31579;52.354;16.974;2023-05-25T01:22:02;496.2;;;-146.1;100.0
45864;BME280;31579;52.354;16.974;2023-05-25T01:23:04;499.8;;;-146.1;100.0
45864;BME280;31579;52.354;16.974;2023-05-25T01:24:09;497.3;;;-146.1;100.0
45864;BME280;31579;52.354;16.974;2023-05-25T01:25:12;496.7;;;-146.1;100.0
45864;BME280;31579;52.354;16.974;2023-05-25T01:26:15;496.1;;;-146.1;100.0
45864;BME280;31579;52.354;16.974;2023-05-25T01:28:24;496.3;;;-146.1;100.0
45864;BME280;31579;52.354;16.974;2023-05-25T01:29:27;496.3;;;-146.1;100.0
45864;BME280;31579;52.354;16.974;2023-05-25T01:30:31;496.4;;;-146.1;100.0
45864;BME280;31579;52.354;16.974;2023-05-25T01:31:35;496.4;;;-146.1;100.0
45864;BME280;31579;52.354;16.974;2023-05-25T01:32:40;496.5;;;-146.1;100.0
45864;BME280;31579;52.354;16.974;2023-05-25T01:33:43;496.4;;;-146.1;100.0
45864;BME280;31579;52.354;16.974;2023-05-25T01:34:47;496.3;;;-146.1;100.0
45864;BME280;31579;52.354;16.974;2023-05-25T01:35:51;496.3;;;-146.1;100.0
45864;BME280;31579;52.354;16.974;2023-05-25T01:36:55;496.2;;;-146.1;100.0
45864;BME280;31579;52.354;16.974;2023-05-25T01:38:00;496.2;;;-146.1;100.0
45864;BME280;31579;52.354;16.974;2023-05-25T01:39:04;496.1;;;-146.1;100.0
45864;BME280;31579;52.354;16.974;2023-05-25T01:40:08;496.1;;;-146.1;100.0
45864;BME280;31579;52.354;16.974;2023-05-25T01:41:12;496.1;;;-146.1;100.0
45864;BME280;31579;52.354;16.974;2023-05-25T01:42:14;499.9;;;-146.1;100.0
45864;BME280;31579;52.354;16.974;2023-05-25T01:43:19;497.3;;;-146.1;100.0
45864;BME280;31579;52.354;16.974;2023-05-25T01:44:24;497.0;;;-146.1;100.0
45864;BME280;31579;52.354;16.974;2023-05-25T01:45:28;496.6;;;-146.1;100.0
45864;BME280;31579;52.354;16.974;2023-05-25T01:46:34;496.6;;;-146.1;100.0
45864;BME280;31579;52.354;16.974;2023-05-25T01:50:52;495.8;;;-146.1;100.0
45864;BME280;31579;52.354;16.974;2023-05-25T01:54:02;495.7;;;-146.1;100.0
45864;BME280;31579;52.354;16.974;2023-05-25T01:55:05;495.8;;;-146.1;100.0
45864;BME280;31579;52.354;16.974;2023-05-25T01:56:09;495.7;;;-146.1;100.0
45864;BME280;31579;52.354;16.974;2023-05-25T01:57:12;495.5;;;-146.1;100.0
45864;BME280;31579;52.354;16.974;2023-05-25T01:58:14;499.2;;;-146.1;100.0
45864;BME280;31579;52.354;16.974;2023-05-25T01:59:18;498.4;;;-146.1;100.0
45864;BME280;31579;52.354;16.974;2023-05-25T02:00:21;496.4;;;-146.1;100.0
45864;BME280;31579;52.354;16.974;2023-05-25T02:01:25;495.9;;;-146.1;100.0
45864;BME280;31579;52.354;16.974;2023-05-25T02:02:29;495.6;;;-146.1;100.0
45864;BME280;31579;52.354;16.974;2023-05-25T02:03:33;495.5;;;-146.1;100.0
45864;BME280;31579;52.354;16.974;2023-05-25T02:04:37;495.4;;;-146.1;100.0
45864;BME280;31579;52.354;16.974;2023-05-25T02:05:41;495.3;;;-146.1;100.0
45864;BME280;31579;52.354;16.974;2023-05-25T02:06:47;495.3;;;-146.1;100.0
45864;BME280;31579;52.354;16.974;2023-05-25T02:07:49;495.1;;;-146.1;100.0
45864;BME280;31579;52.354;16.974;2023-05-25T02:08:53;495.0;;;-146.1;100.0
45864;BME280;31579;52.354;16.974;2023-05-25T02:10:11;491.2;;;-146.1;100.0
45864;BME280;31579;52.354;16.974;2023-05-25T02:11:15;492.9;;;-146.1;100.0
45864;BME280;31579;52.354;16.974;2023-05-25T02:12:20;493.7;;;-146.1;100.0
45864;BME280;31579;52.354;16.974;2023-05-25T02:13:24;493.8;;;-146.1;100.0
45864;BME280;31579;52.354;16.974;2023-05-25T02:14:28;494.0;;;-146.1;100.0
45864;BME280;31579;52.354;16.974;2023-05-25T02:15:33;494.1;;;-146.1;100.0
45864;BME280;31579;52.354;16.974;2023-05-25T02:16:37;494.3;;;-146.1;100.0
45864;BME280;31579;52.354;16.974;2023-05-25T02:17:41;494.2;;;-146.1;100.0
45864;BME280;31579;52.354;16.974;2023-05-25T02:18:45;494.1;;;-146.1;100.0
45864;BME280;31579;52.354;16.974;2023-05-25T02:19:49;494.0;;;-146.1;100.0
45864;BME280;31579;52.354;16.974;2023-05-25T02:20:53;493.7;;;-146.1;100.0
45864;BME280;31579;52.354;16.974;2023-05-25T02:21:58;493.5;;;-146.1;100.0
45864;BME280;31579;52.354;16.974;2023-05-25T02:23:01;493.4;;;-146.1;100.0
45864;BME280;31579;52.354;16.974;2023-05-25T02:24:06;491.1;;;-146.1;100.0
45864;BME280;31579;52.354;16.974;2023-05-25T02:25:09;494.6;;;-146.1;100.0
45864;BME280;31579;52.354;16.974;2023-05-25T02:26:13;493.2;;;-146.1;100.0
45864;BME280;31579;52.354;16.974;2023-05-25T02:27:17;492.8;;;-146.1;100.0
45864;BME280;31579;52.354;16.974;2023-05-25T02:28:21;492.6;;;-146.1;100.0
45864;BME280;31579;52.354;16.974;2023-05-25T02:29:25;492.4;;;-146.1;100.0
45864;BME280;31579;52.354;16.974;2023-05-25T02:30:29;492.5;;;-146.1;100.0
45864;BME280;31579;52.354;16.974;2023-05-25T02:31:33;492.3;;;-146.1;100.0
45864;BME280;31579;52.354;16.974;2023-05-25T02:32:37;492.4;;;-146.1;100.0
45864;BME280;31579;52.354;16.974;2023-05-25T02:33:41;492.5;;;-146.1;100.0
45864;BME280;31579;52.354;16.974;2023-05-25T02:34:45;492.5;;;-146.1;100.0
45864;BME280;31579;52.354;16.974;2023-05-25T02:35:49;492.5;;;-146.1;100.0
45864;BME280;31579;52.354;16.974;2023-05-25T02:36:53;492.5;;;-146.1;100.0
45864;BME280;31579;52.354;16.974;2023-05-25T02:37:57;493.0;;;-146.1;100.0
45864;BME280;31579;52.354;16.974;2023-05-25T02:39:01;493.2;;;-146.1;100.0
45864;BME280;31579;52.354;16.974;2023-05-25T02:40:07;492.8;;;-146.1;100.0
45864;BME280;31579;52.354;16.974;2023-05-25T02:41:10;493.2;;;-146.1;100.0
45864;BME280;31579;52.354;16.974;2023-05-25T02:42:14;493.2;;;-146.1;100.0
45864;BME280;31579;52.354;16.974;2023-05-25T02:43:18;493.1;;;-146.1;100.0
45864;BME280;31579;52.354;16.974;2023-05-25T02:44:22;493.1;;;-146.1;100.0
45864;BME280;31579;52.354;16.974;2023-05-25T02:45:26;493.2;;;-146.1;100.0
45864;BME280;31579;52.354;16.974;2023-05-25T02:46:30;493.3;;;-146.1;100.0
45864;BME280;31579;52.354;16.974;2023-05-25T02:47:34;493.4;;;-146.1;100.0
45864;BME280;31579;52.354;16.974;2023-05-25T02:48:38;493.4;;;-146.1;100.0
45864;BME280;31579;52.354;16.974;2023-05-25T02:49:43;493.3;;;-146.1;100.0
45864;BME280;31579;52.354;16.974;2023-05-25T02:50:46;493.6;;;-146.1;100.0
45864;BME280;31579;52.354;16.974;2023-05-25T02:51:50;493.6;;;-146.1;100.0
45864;BME280;31579;52.354;16.974;2023-05-25T02:52:54;493.5;;;-146.1;100.0
45864;BME280;31579;52.354;16.974;2023-05-25T02:53:58;493.6;;;-146.1;100.0
45864;BME280;31579;52.354;16.974;2023-05-25T02:55:09;491.6;;;-146.1;100.0
45864;BME280;31579;52.354;16.974;2023-05-25T02:56:12;492.5;;;-146.1;100.0
45864;BME280;31579;52.354;16.974;2023-05-25T02:57:16;492.9;;;-146.1;100.0
45864;BME280;31579;52.354;16.974;2023-05-25T02:58:21;493.2;;;-146.1;100.0
45864;BME280;31579;52.354;16.974;2023-05-25T02:59:24;493.4;;;-146.1;100.0
45864;BME280;31579;52.354;16.974;2023-05-25T03:00:28;493.6;;;-146.1;100.0
45864;BME280;31579;52.354;16.974;2023-05-25T03:01:33;493.5;;;-146.1;100.0
45864;BME280;31579;52.354;16.974;2023-05-25T03:02:36;493.7;;;-146.1;100.0
45864;BME280;31579;52.354;16.974;2023-05-25T03:03:40;493.5;;;-146.1;100.0
45864;BME280;31579;52.354;16.974;2023-05-25T03:04:44;493.6;;;-146.1;100.0
45864;BME280;31579;52.354;16.974;2023-05-25T03:05:48;493.5;;;-146.1;100.0
45864;BME280;31579;52.354;16.974;2023-05-25T03:06:52;493.4;;;-146.1;100.0
45864;BME280;31579;52.354;16.974;2023-05-25T03:07:56;493.6;;;-146.1;100.0
45864;BME280;31579;52.354;16.974;2023-05-25T03:09:01;493.5;;;-146.1;100.0
45864;BME280;31579;52.354;16.974;2023-05-25T03:10:06;493.6;;;-146.1;100.0
45864;BME280;31579;52.354;16.974;2023-05-25T03:11:09;493.3;;;-146.1;100.0
45864;BME280;31579;52.354;16.974;2023-05-25T03:12:13;492.7;;;-146.1;100.0
45864;BME280;31579;52.354;16.974;2023-05-25T03:13:17;492.5;;;-146.1;100.0
45864;BME280;31579;52.354;16.974;2023-05-25T03:14:21;492.3;;;-146.1;100.0
45864;BME280;31579;52.354;16.974;2023-05-25T03:15:25;492.0;;;-146.1;100.0
45864;BME280;31579;52.354;16.974;2023-05-25T03:16:29;491.8;;;-146.1;100.0
45864;BME280;31579;52.354;16.974;2023-05-25T03:17:33;491.6;;;-146.1;100.0
45864;BME280;31579;52.354;16.974;2023-05-25T03:18:37;491.1;;;-146.1;100.0
45864;BME280;31579;52.354;16.974;2023-05-25T03:19:41;490.7;;;-146.1;100.0
45864;BME280;31579;52.354;16.974;2023-05-25T03:20:45;490.4;;;-146.1;100.0
45864;BME280;31579;52.354;16.974;2023-05-25T03:21:49;489.8;;;-146.1;100.0
45864;BME280;31579;52.354;16.974;2023-05-25T03:22:54;489.4;;;-146.1;100.0
45864;BME280;31579;52.354;16.974;2023-05-25T03:23:58;489.1;;;-146.1;100.0
45864;BME280;31579;52.354;16.974;2023-05-25T03:25:02;488.8;;;-146.1;100.0
45864;BME280;31579;52.354;16.974;2023-05-25T03:26:05;488.4;;;-146.1;100.0
45864;BME280;31579;52.354;16.974;2023-05-25T03:27:09;488.0;;;-146.1;100.0
45864;BME280;31579;52.354;16.974;2023-05-25T03:28:13;487.9;;;-146.1;100.0
45864;BME280;31579;52.354;16.974;2023-05-25T03:29:17;487.7;;;-146.1;100.0
45864;BME280;31579;52.354;16.974;2023-05-25T03:30:22;487.8;;;-146.1;100.0
45864;BME280;31579;52.354;16.974;2023-05-25T03:31:25;487.7;;;-146.1;100.0
45864;BME280;31579;52.354;16.974;2023-05-25T03:32:29;487.8;;;-146.1;100.0
45864;BME280;31579;52.354;16.974;2023-05-25T03:33:33;487.7;;;-146.1;100.0
45864;BME280;31579;52.354;16.974;2023-05-25T03:34:37;487.8;;;-146.1;100.0
45864;BME280;31579;52.354;16.974;2023-05-25T03:35:41;487.9;;;-146.1;100.0
45864;BME280;31579;52.354;16.974;2023-05-25T03:36:45;487.9;;;-146.1;100.0
45864;BME280;31579;52.354;16.974;2023-05-25T03:37:50;488.2;;;-146.1;100.0
45864;BME280;31579;52.354;16.974;2023-05-25T03:38:55;488.3;;;-146.1;100.0
45864;BME280;31579;52.354;16.974;2023-05-25T03:39:59;488.4;;;-146.1;100.0
45864;BME280;31579;52.354;16.974;2023-05-25T03:40:16;487.9;;;-146.1;100.0
45864;BME280;31579;52.354;16.974;2023-05-25T03:41:20;487.8;;;-146.1;100.0
45864;BME280;31579;52.354;16.974;2023-05-25T03:42:24;488.2;;;-146.1;100.0
45864;BME280;31579;52.354;16.974;2023-05-25T03:43:28;488.5;;;-146.1;100.0
45864;BME280;31579;52.354;16.974;2023-05-25T03:44:32;488.9;;;-146.1;100.0
45864;BME280;31579;52.354;16.974;2023-05-25T03:45:36;488.8;;;-146.1;100.0
45864;BME280;31579;52.354;16.974;2023-05-25T03:46:40;488.7;;;-146.1;100.0
45864;BME280;31579;52.354;16.974;2023-05-25T03:47:44;488.6;;;-146.1;100.0
45864;BME280;31579;52.354;16.974;2023-05-25T03:48:48;488.6;;;-146.1;100.0
45864;BME280;31579;52.354;16.974;2023-05-25T03:49:52;488.1;;;-146.1;100.0
45864;BME280;31579;52.354;16.974;2023-05-25T03:50:56;487.8;;;-146.1;100.0
45864;BME280;31579;52.354;16.974;2023-05-25T03:52:00;487.5;;;-146.1;100.0
45864;BME280;31579;52.354;16.974;2023-05-25T03:53:04;487.3;;;-146.1;100.0
45864;BME280;31579;52.354;16.974;2023-05-25T03:54:08;487.3;;;-146.1;100.0
45864;BME280;31579;52.354;16.974;2023-05-25T03:55:13;487.0;;;-146.1;100.0
45864;BME280;31579;52.354;16.974;2023-05-25T03:56:17;487.0;;;-146.1;100.0
45864;BME280;31579;52.354;16.974;2023-05-25T03:57:21;486.9;;;-146.1;100.0
45864;BME280;31579;52.354;16.974;2023-05-25T03:58:25;486.6;;;-146.1;100.0
45864;BME280;31579;52.354;16.974;2023-05-25T03:59:29;486.3;;;-146.1;100.0
45864;BME280;31579;52.354;16.974;2023-05-25T04:00:33;486.0;;;-146.1;100.0
45864;BME280;31579;52.354;16.974;2023-05-25T04:01:37;485.9;;;-146.1;100.0
45864;BME280;31579;52.354;16.974;2023-05-25T04:02:41;486.0;;;-146.1;100.0
45864;BME280;31579;52.354;16.974;2023-05-25T04:03:45;486.3;;;-146.1;100.0
45864;BME280;31579;52.354;16.974;2023-05-25T04:04:49;486.4;;;-146.1;100.0
45864;BME280;31579;52.354;16.974;2023-05-25T04:05:53;486.1;;;-146.1;100.0
45864;BME280;31579;52.354;16.974;2023-05-25T04:06:57;485.6;;;-146.1;100.0
45864;BME280;31579;52.354;16.974;2023-05-25T04:08:01;485.5;;;-146.1;100.0
45864;BME280;31579;52.354;16.974;2023-05-25T04:09:04;487.8;;;-146.1;100.0
45864;BME280;31579;52.354;16.974;2023-05-25T04:10:08;485.9;;;-146.1;100.0
45864;BME280;31579;52.354;16.974;2023-05-25T04:11:13;482.8;;;-146.1;100.0
45864;BME280;31579;52.354;16.974;2023-05-25T04:12:17;484.0;;;-146.1;100.0
45864;BME280;31579;52.354;16.974;2023-05-25T04:13:21;483.4;;;-146.1;100.0
45864;BME280;31579;52.354;16.974;2023-05-25T04:14:25;482.7;;;-146.1;100.0
45864;BME280;31579;52.354;16.974;2023-05-25T04:15:29;482.0;;;-146.1;100.0
45864;BME280;31579;52.354;16.974;2023-05-25T04:16:33;481.4;;;-146.1;100.0
45864;BME280;31579;52.354;16.974;2023-05-25T04:17:37;480.7;;;-146.1;100.0
45864;BME280;31579;52.354;16.974;2023-05-25T04:18:41;479.8;;;-146.1;100.0
45864;BME280;31579;52.354;16.974;2023-05-25T04:19:45;479.2;;;-146.1;100.0
45864;BME280;31579;52.354;16.974;2023-05-25T04:20:49;479.1;;;-146.1;100.0
45864;BME280;31579;52.354;16.974;2023-05-25T04:21:53;478.2;;;-146.1;100.0
45864;BME280;31579;52.354;16.974;2023-05-25T04:22:58;477.2;;;-146.1;100.0
45864;BME280;31579;52.354;16.974;2023-05-25T04:24:02;476.1;;;-146.1;100.0
45864;BME280;31579;52.354;16.974;2023-05-25T04:25:06;475.5;;;-146.1;100.0
45864;BME280;31579;52.354;16.974;2023-05-25T04:26:10;474.9;;;-146.1;100.0
45864;BME280;31579;52.354;16.974;2023-05-25T04:27:12;478.7;;;-146.1;100.0
45864;BME280;31579;52.354;16.974;2023-05-25T04:28:14;478.6;;;-146.1;100.0
45864;BME280;31579;52.354;16.974;2023-05-25T04:29:18;473.9;;;-146.1;100.0
45864;BME280;31579;52.354;16.974;2023-05-25T04:30:22;472.2;;;-146.1;100.0
45864;BME280;31579;52.354;16.974;2023-05-25T04:31:26;470.6;;;-146.1;100.0
45864;BME280;31579;52.354;16.974;2023-05-25T04:32:30;469.6;;;-146.1;100.0
45864;BME280;31579;52.354;16.974;2023-05-25T04:33:34;469.1;;;-146.1;100.0
45864;BME280;31579;52.354;16.974;2023-05-25T04:34:38;467.0;;;-146.1;100.0
45864;BME280;31579;52.354;16.974;2023-05-25T04:35:42;466.3;;;-146.1;100.0
45864;BME280;31579;52.354;16.974;2023-05-25T04:36:46;465.0;;;-146.1;100.0
45864;BME280;31579;52.354;16.974;2023-05-25T04:37:50;461.8;;;-146.1;100.0
45864;BME280;31579;52.354;16.974;2023-05-25T04:38:54;459.2;;;-146.1;100.0
45864;BME280;31579;52.354;16.974;2023-05-25T04:39:58;455.5;;;-146.1;100.0
45864;BME280;31579;52.354;16.974;2023-05-25T04:41:02;453.9;;;-146.1;100.0
45864;BME280;31579;52.354;16.974;2023-05-25T04:42:06;451.9;;;-146.1;100.0
45864;BME280;31579;52.354;16.974;2023-05-25T04:43:10;448.5;;;-146.1;100.0
45864;BME280;31579;52.354;16.974;2023-05-25T04:44:15;445.4;;;-146.1;100.0
45864;BME280;31579;52.354;16.974;2023-05-25T04:45:19;441.7;;;-146.1;100.0
45864;BME280;31579;52.354;16.974;2023-05-25T04:46:23;438.4;;;-146.1;100.0
45864;BME280;31579;52.354;16.974;2023-05-25T04:47:28;432.8;;;-146.1;100.0
45864;BME280;31579;52.354;16.974;2023-05-25T04:48:32;430.9;;;-146.1;100.0
45864;BME280;31579;52.354;16.974;2023-05-25T04:49:36;431.2;;;-146.1;100.0
45864;BME280;31579;52.354;16.974;2023-05-25T04:50:40;435.6;;;-146.1;100.0
45864;BME280;31579;52.354;16.974;2023-05-25T04:51:44;437.2;;;-146.1;100.0
45864;BME280;31579;52.354;16.974;2023-05-25T04:52:48;438.4;;;-146.1;100.0
45864;BME280;31579;52.354;16.974;2023-05-25T04:53:52;439.7;;;-146.1;100.0
45864;BME280;31579;52.354;16.974;2023-05-25T04:54:56;441.5;;;-146.1;100.0
45864;BME280;31579;52.354;16.974;2023-05-25T04:56:00;445.0;;;-146.1;100.0
45864;BME280;31579;52.354;16.974;2023-05-25T04:57:04;453.5;;;-146.1;100.0
45864;BME280;31579;52.354;16.974;2023-05-25T04:58:08;474.7;;;-146.1;100.0
45864;BME280;31579;52.354;16.974;2023-05-25T04:59:13;492.9;;;-146.1;100.0
45864;BME280;31579;52.354;16.974;2023-05-25T05:00:18;598.0;;;-146.1;100.0
45864;BME280;31579;52.354;16.974;2023-05-25T05:01:22;725.0;;;-146.1;100.0
45864;BME280;31579;52.354;16.974;2023-05-25T05:02:26;752.8;;;-146.1;100.0
45864;BME280;31579;52.354;16.974;2023-05-25T05:03:30;809.9;;;-146.1;100.0
45864;BME280;31579;52.354;16.974;2023-05-25T05:04:34;849.4;;;-146.1;100.0
45864;BME280;31579;52.354;16.974;2023-05-25T05:05:38;879.9;;;-146.1;100.0
45864;BME280;31579;52.354;16.974;2023-05-25T05:06:42;971.1;;;-146.1;100.0
45864;BME280;31579;52.354;16.974;2023-05-25T05:07:46;1057.8;;;-146.1;100.0
45864;BME280;31579;52.354;16.974;2023-05-25T05:08:50;1105.1;;;-146.1;100.0
45864;BME280;31579;52.354;16.974;2023-05-25T05:09:54;1156.0;;;-146.1;100.0
45864;BME280;31579;52.354;16.974;2023-05-25T05:10:58;1181.7;;;-146.1;100.0
45864;BME280;31579;52.354;16.974;2023-05-25T05:12:02;1183.4;;;-146.1;100.0
45864;BME280;31579;52.354;16.974;2023-05-25T05:13:06;1183.6;;;-146.1;100.0
45864;BME280;31579;52.354;16.974;2023-05-25T05:14:10;1183.1;;;-146.1;100.0
45864;BME280;31579;52.354;16.974;2023-05-25T05:15:13;1183.8;;;-146.1;100.0
45864;BME280;31579;52.354;16.974;2023-05-25T05:16:17;1181.8;;;-146.1;100.0
45864;BME280;31579;52.354;16.974;2023-05-25T05:17:21;1180.0;;;-146.1;100.0
45864;BME280;31579;52.354;16.974;2023-05-25T05:18:25;1179.5;;;-146.1;100.0
45864;BME280;31579;52.354;16.974;2023-05-25T05:19:29;1179.2;;;-146.1;100.0
45864;BME280;31579;52.354;16.974;2023-05-25T05:20:33;1177.8;;;-146.1;100.0
45864;BME280;31579;52.354;16.974;2023-05-25T05:21:38;1176.2;;;-146.1;100.0
45864;BME280;31579;52.354;16.974;2023-05-25T05:22:42;1173.3;;;-146.1;100.0
45864;BME280;31579;52.354;16.974;2023-05-25T05:23:46;1172.0;;;-146.1;100.0
45864;BME280;31579;52.354;16.974;2023-05-25T05:24:50;1170.9;;;-146.1;100.0
45864;BME280;31579;52.354;16.974;2023-05-25T05:25:54;1169.5;;;-146.1;100.0
45864;BME280;31579;52.354;16.974;2023-05-25T05:26:58;1169.9;;;-146.1;100.0
45864;BME280;31579;52.354;16.974;2023-05-25T05:28:02;1168.1;;;-146.1;100.0
45864;BME280;31579;52.354;16.974;2023-05-25T05:29:06;1167.5;;;-146.1;100.0
45864;BME280;31579;52.354;16.974;2023-05-25T05:30:10;1166.0;;;-146.1;100.0
45864;BME280;31579;52.354;16.974;2023-05-25T05:31:12;1169.6;;;-146.1;100.0
45864;BME280;31579;52.354;16.974;2023-05-25T05:32:21;1164.7;;;-146.1;100.0
45864;BME280;31579;52.354;16.974;2023-05-25T05:33:25;1162.3;;;-146.1;100.0
45864;BME280;31579;52.354;16.974;2023-05-25T05:34:29;1159.3;;;-146.1;100.0
45864;BME280;31579;52.354;16.974;2023-05-25T05:35:34;1158.0;;;-146.1;100.0
45864;BME280;31579;52.354;16.974;2023-05-25T05:36:38;1154.3;;;-146.1;100.0
45864;BME280;31579;52.354;16.974;2023-05-25T05:37:42;1151.0;;;-146.1;100.0
45864;BME280;31579;52.354;16.974;2023-05-25T05:38:46;1152.6;;;-146.1;100.0
45864;BME280;31579;52.354;16.974;2023-05-25T05:39:50;1150.6;;;-146.1;100.0
45864;BME280;31579;52.354;16.974;2023-05-25T05:40:54;1146.1;;;-146.1;100.0
45864;BME280;31579;52.354;16.974;2023-05-25T05:41:58;1142.1;;;-146.1;100.0
45864;BME280;31579;52.354;16.974;2023-05-25T05:43:15;1143.4;;;-146.1;100.0
45864;BME280;31579;52.354;16.974;2023-05-25T05:44:20;1140.0;;;-146.1;100.0
45864;BME280;31579;52.354;16.974;2023-05-25T05:45:23;1136.4;;;-146.1;100.0
45864;BME280;31579;52.354;16.974;2023-05-25T05:46:26;1136.1;;;-146.1;100.0
45864;BME280;31579;52.354;16.974;2023-05-25T05:47:31;1133.0;;;-146.1;100.0
45864;BME280;31579;52.354;16.974;2023-05-25T05:48:36;1130.1;;;-146.1;100.0
45864;BME280;31579;52.354;16.974;2023-05-25T05:49:40;1129.0;;;-146.1;100.0